createdAt,value
2023-01-21T07:43:41.834Z,0.60
2023-01-21T07:45:44.592Z,0.91
2023-01-21T07:47:47.464Z,1.14
2023-01-21T07:49:50.301Z,1.34
2023-01-21T07:51:57.477Z,1.49
2023-01-21T07:54:00.137Z,1.64
2023-01-21T07:56:04.957Z,1.74
2023-01-21T07:58:07.598Z,1.85
2023-01-21T08:00:13.444Z,1.94
2023-01-21T08:02:16.232Z,2.01
2023-01-21T08:04:19.007Z,2.06
2023-01-21T08:06:21.727Z,2.11
2023-01-21T08:08:24.443Z,2.17
2023-01-21T08:10:27.572Z,2.21
2023-01-21T08:12:30.252Z,2.25
2023-01-21T08:14:33.216Z,2.27
2023-01-21T08:16:37.293Z,2.30
2023-01-21T08:18:40.083Z,2.33
2023-01-21T08:20:43.277Z,2.37
2023-01-21T08:22:45.908Z,2.40
2023-01-21T08:24:48.764Z,2.43
2023-01-21T08:26:51.475Z,2.45
2023-01-21T08:28:55.072Z,2.48
2023-01-21T08:31:04.605Z,2.52
2023-01-21T08:33:08.724Z,2.56
2023-01-21T08:35:11.377Z,2.60
2023-01-21T08:37:14.244Z,2.61
2023-01-21T08:39:17.030Z,2.62
2023-01-21T08:41:19.714Z,2.63
2023-01-21T08:43:22.402Z,2.66
2023-01-21T08:45:25.099Z,2.68
2023-01-21T08:47:27.993Z,2.69
2023-01-21T08:49:32.011Z,2.70
2023-01-21T08:51:35.150Z,2.74
2023-01-21T08:53:37.837Z,2.70
2023-01-21T08:55:40.530Z,2.67
2023-01-21T08:57:43.248Z,2.68
2023-01-21T08:59:45.897Z,2.67
2023-01-21T09:01:48.577Z,2.60
2023-01-21T09:03:55.851Z,2.58
2023-01-21T09:06:02.967Z,2.54
2023-01-21T09:08:05.779Z,2.46
2023-01-21T09:10:09.800Z,2.45
2023-01-21T09:12:12.464Z,2.37
2023-01-21T09:14:15.135Z,2.32
2023-01-21T09:16:21.682Z,2.28
2023-01-21T09:18:24.462Z,2.32
2023-01-21T09:20:27.402Z,2.37
2023-01-21T09:22:31.443Z,2.28
2023-01-21T09:24:34.163Z,2.35
2023-01-21T09:26:36.830Z,2.40
2023-01-21T09:28:42.277Z,2.33
2023-01-21T09:30:45.114Z,2.26
2023-01-21T09:32:47.858Z,2.30
2023-01-21T09:34:50.511Z,2.21
2023-01-21T09:36:53.178Z,2.27
2023-01-21T09:38:57.285Z,2.38
2023-01-21T09:41:06.233Z,2.42
2023-01-21T09:43:16.573Z,2.50
2023-01-21T09:45:21.246Z,2.51
2023-01-21T09:47:25.708Z,2.55
2023-01-21T09:49:32.026Z,2.50
2023-01-21T09:51:42.580Z,2.45
2023-01-21T09:53:50.595Z,2.46
2023-01-21T09:55:58.633Z,2.51
2023-01-21T09:58:16.560Z,2.55
2023-01-21T10:00:33.854Z,2.65
2023-01-21T10:02:45.437Z,2.69
2023-01-21T10:04:56.332Z,2.75
2023-01-21T10:07:03.613Z,2.66
2023-01-21T10:09:29.065Z,2.49
2023-01-21T10:11:48.255Z,2.54
2023-01-21T10:14:06.925Z,2.53
2023-01-21T10:16:18.237Z,2.62
2023-01-21T10:18:25.991Z,2.63
2023-01-21T10:20:32.688Z,2.69
2023-01-21T10:22:36.235Z,2.72
2023-01-21T10:24:46.106Z,2.74
2023-01-21T10:26:53.589Z,2.81
2023-01-21T10:28:56.749Z,2.88
2023-01-21T10:31:03.706Z,2.90
2023-01-21T10:33:13.653Z,2.97
2023-01-21T10:35:18.969Z,2.98
2023-01-21T10:37:33.858Z,2.77
2023-01-21T10:39:46.634Z,2.71
2023-01-21T10:42:06.414Z,2.76
2023-01-21T10:44:16.132Z,2.80
2023-01-21T10:46:26.203Z,2.83
2023-01-21T10:48:37.403Z,2.80
2023-01-21T10:50:49.201Z,2.85
2023-01-21T10:52:56.929Z,2.85
2023-01-21T10:55:07.098Z,2.84
2023-01-21T10:57:22.864Z,2.75
2023-01-21T10:59:31.603Z,2.85
2023-01-21T11:01:41.606Z,2.88
2023-01-21T11:03:47.091Z,2.91
2023-01-21T11:05:50.251Z,2.97
2023-01-21T11:07:53.652Z,3.04
2023-01-21T11:09:56.479Z,3.04
2023-01-21T11:12:00.522Z,3.05
2023-01-21T11:14:04.833Z,3.02
2023-01-21T11:16:08.213Z,3.07
2023-01-21T11:18:28.007Z,3.16
2023-01-21T11:20:36.961Z,3.12
2023-01-21T11:22:45.573Z,3.12
2023-01-21T11:24:49.994Z,3.10
2023-01-21T11:26:55.013Z,3.11
2023-01-21T11:29:10.403Z,3.07
2023-01-21T11:31:16.158Z,3.05
2023-01-21T11:33:25.430Z,3.03
2023-01-21T11:35:28.235Z,3.04
2023-01-21T11:37:32.246Z,3.00
2023-01-21T11:39:37.792Z,2.99
2023-01-21T11:41:40.461Z,2.97
2023-01-21T11:43:45.707Z,2.96
2023-01-21T11:45:52.204Z,2.87
2023-01-21T11:47:55.893Z,2.87
2023-01-21T11:50:10.410Z,2.85
2023-01-21T11:52:21.272Z,2.89
2023-01-21T11:54:25.325Z,2.91
2023-01-21T11:56:28.171Z,2.98
2023-01-21T11:58:33.108Z,2.94
2023-01-21T12:00:37.310Z,2.91
2023-01-21T12:02:45.154Z,2.92
2023-01-21T12:04:50.840Z,3.00
2023-01-21T12:06:58.134Z,3.04
2023-01-21T12:09:04.334Z,3.10
2023-01-21T12:11:09.095Z,3.15
2023-01-21T12:13:36.282Z,3.13
2023-01-21T12:16:03.554Z,3.13
2023-01-21T12:18:18.076Z,3.10
2023-01-21T12:20:31.916Z,3.07
2023-01-21T12:22:57.629Z,3.16
2023-01-21T12:25:14.351Z,3.17
2023-01-21T12:27:25.740Z,3.24
2023-01-21T12:29:41.338Z,3.22
2023-01-21T12:31:49.587Z,3.19
2023-01-21T12:34:00.242Z,3.18
2023-01-21T12:36:08.333Z,3.24
2023-01-21T12:38:17.161Z,3.34
2023-01-21T12:40:25.152Z,3.29
2023-01-21T12:42:34.825Z,3.28
2023-01-21T12:44:43.278Z,3.29
2023-01-21T12:46:51.192Z,3.31
2023-01-21T12:49:02.176Z,3.33
2023-01-21T12:51:09.988Z,3.29
2023-01-21T12:53:20.999Z,3.24
2023-01-21T12:55:29.118Z,3.22
2023-01-21T12:57:38.953Z,3.22
2023-01-21T12:59:47.528Z,3.26
2023-01-21T13:01:57.186Z,3.32
2023-01-21T13:04:07.500Z,3.36
2023-01-21T13:06:16.370Z,3.35
2023-01-21T13:08:32.568Z,3.34
2023-01-21T13:10:38.318Z,3.42
2023-01-21T13:12:43.327Z,3.43
2023-01-21T13:14:48.674Z,3.47
2023-01-21T13:16:55.295Z,3.50
2023-01-21T13:18:57.999Z,3.51
2023-01-21T13:21:10.965Z,3.52
2023-01-21T13:23:20.706Z,3.56
2023-01-21T13:25:33.515Z,3.57
2023-01-21T13:27:45.272Z,3.56
2023-01-21T13:29:54.502Z,3.50
2023-01-21T13:32:15.858Z,3.39
2023-01-21T13:34:26.851Z,3.36
2023-01-21T13:36:56.563Z,3.36
2023-01-21T13:39:05.281Z,3.43
2023-01-21T13:41:24.491Z,3.45
2023-01-21T13:43:44.058Z,3.49
2023-01-21T13:45:59.796Z,3.55
2023-01-21T13:48:23.155Z,3.61
2023-01-21T13:50:39.656Z,3.70
2023-01-21T13:52:56.794Z,3.65
2023-01-21T13:55:16.645Z,3.64
2023-01-21T13:57:32.014Z,3.56
2023-01-21T13:59:40.475Z,3.58
2023-01-21T14:01:46.634Z,3.63
2023-01-21T14:03:56.507Z,3.55
2023-01-21T14:06:06.011Z,3.57
2023-01-21T14:08:14.987Z,3.52
2023-01-21T14:10:26.145Z,3.52
2023-01-21T14:12:51.274Z,3.54
2023-01-21T14:15:32.082Z,3.56
2023-01-21T14:18:03.265Z,3.52
2023-01-21T14:20:30.133Z,3.45
2023-01-21T14:22:47.240Z,3.49
2023-01-21T14:25:06.175Z,3.60
2023-01-21T14:27:19.994Z,3.62
2023-01-21T14:29:34.143Z,3.59
2023-01-21T14:31:41.701Z,3.58
2023-01-21T14:33:50.307Z,3.56
2023-01-21T14:36:01.874Z,3.51
2023-01-21T14:38:13.576Z,3.48
2023-01-21T14:40:24.084Z,3.41
2023-01-21T14:42:41.772Z,3.43
2023-01-21T14:44:46.018Z,3.48
2023-01-21T14:47:12.547Z,3.47
2023-01-21T14:49:42.299Z,3.55
2023-01-21T14:51:49.015Z,3.52
2023-01-21T14:53:53.457Z,3.48
2023-01-21T14:56:10.630Z,3.49
2023-01-21T14:58:23.580Z,3.48
2023-01-21T15:00:30.227Z,3.44
2023-01-21T15:02:36.498Z,3.48
2023-01-21T15:04:40.059Z,3.49
2023-01-21T15:06:43.828Z,3.46
2023-01-21T15:08:51.094Z,3.44
2023-01-21T15:10:56.770Z,3.47
2023-01-21T15:13:05.343Z,3.41
2023-01-21T15:15:27.351Z,3.32
2023-01-21T15:17:46.825Z,3.27
2023-01-21T15:19:58.316Z,3.29
2023-01-21T15:22:24.152Z,3.26
2023-01-21T15:24:30.467Z,3.26
2023-01-21T15:26:33.799Z,3.30
2023-01-21T15:28:44.750Z,3.27
2023-01-21T15:31:00.696Z,3.29
2023-01-21T15:33:03.684Z,3.23
2023-01-21T15:35:16.766Z,3.21
2023-01-21T15:37:22.593Z,3.28
2023-01-21T15:39:33.293Z,3.26
2023-01-21T15:41:44.318Z,3.20
2023-01-21T15:43:56.485Z,3.27
2023-01-21T15:46:11.909Z,3.30
2023-01-21T15:48:41.162Z,3.27
2023-01-21T15:50:52.470Z,3.31
2023-01-21T15:53:10.384Z,3.40
2023-01-21T15:55:33.132Z,3.49
2023-01-21T15:57:48.387Z,3.36
2023-01-21T16:00:04.343Z,3.32
2023-01-21T16:02:16.531Z,3.33
2023-01-21T16:04:31.615Z,3.38
2023-01-21T16:06:45.242Z,3.45
2023-01-21T16:09:03.031Z,3.40
2023-01-21T16:11:24.074Z,3.38
2023-01-21T16:13:37.376Z,3.40
2023-01-21T16:15:54.001Z,3.36
2023-01-21T16:18:15.626Z,3.32
2023-01-21T16:20:18.399Z,3.28
2023-01-21T16:22:25.744Z,3.24
2023-01-21T16:24:30.542Z,3.22
2023-01-21T16:26:33.455Z,3.23
2023-01-21T16:28:49.089Z,3.23
2023-01-21T16:30:59.067Z,3.24
2023-01-21T16:33:09.953Z,3.22
2023-01-21T16:35:12.927Z,3.16
2023-01-21T16:37:17.446Z,3.10
2023-01-21T16:39:20.765Z,3.08
2023-01-21T16:41:27.544Z,3.04
2023-01-21T16:43:30.352Z,3.04
2023-01-21T16:45:33.092Z,3.11
2023-01-21T16:47:37.637Z,3.13
2023-01-21T16:49:43.407Z,3.10
2023-01-21T16:51:51.382Z,3.10
2023-01-21T16:53:54.612Z,3.09
2023-01-21T16:55:59.160Z,3.06
2023-01-21T16:58:01.941Z,3.00
2023-01-21T17:00:23.160Z,2.97
2023-01-21T17:02:29.038Z,3.06
2023-01-21T17:04:33.191Z,3.05
2023-01-21T17:06:35.945Z,2.98
2023-01-21T17:08:39.847Z,3.00
2023-01-21T17:10:55.348Z,3.07
2023-01-21T17:13:03.085Z,3.12
2023-01-21T17:15:18.477Z,3.07
2023-01-21T17:17:24.790Z,3.07
2023-01-21T17:19:32.202Z,3.06
2023-01-21T17:21:39.563Z,3.00
2023-01-21T17:23:47.963Z,2.93
2023-01-21T17:25:56.446Z,2.89
2023-01-21T17:27:59.216Z,2.97
2023-01-21T17:30:26.356Z,3.03
2023-01-21T17:32:33.695Z,3.02
2023-01-21T17:34:37.955Z,2.97
2023-01-21T17:36:43.360Z,2.96
2023-01-21T17:38:47.612Z,3.00
2023-01-21T17:41:02.119Z,2.92
2023-01-21T17:43:19.144Z,2.90
2023-01-21T17:45:28.813Z,2.85
2023-01-21T17:47:34.736Z,2.82
2023-01-21T17:49:37.354Z,2.87
2023-01-21T17:51:45.534Z,2.78
2023-01-21T17:53:55.434Z,2.71
2023-01-21T17:56:01.317Z,2.71
2023-01-21T17:58:06.017Z,2.69
2023-01-21T18:00:27.024Z,2.57
2023-01-21T18:02:29.715Z,2.56
2023-01-21T18:04:32.384Z,2.48
2023-01-21T18:06:35.764Z,2.43
2023-01-21T18:08:39.776Z,2.45
2023-01-21T18:10:43.227Z,2.47
2023-01-21T18:12:45.971Z,2.54
2023-01-21T18:14:48.762Z,2.51
2023-01-21T18:16:53.505Z,2.54
2023-01-21T18:18:56.639Z,2.61
2023-01-21T18:20:59.515Z,2.60
2023-01-21T18:23:02.254Z,2.60
2023-01-21T18:25:08.381Z,2.59
2023-01-21T18:27:13.049Z,2.58
2023-01-21T18:29:17.177Z,2.61
2023-01-21T18:31:20.338Z,2.52
2023-01-21T18:33:23.870Z,2.42
2023-01-21T18:35:28.801Z,2.34
2023-01-21T18:37:31.571Z,2.38
2023-01-21T18:39:34.304Z,2.42
2023-01-21T18:41:38.347Z,2.49
2023-01-21T18:43:43.408Z,2.49
2023-01-21T18:45:46.090Z,2.48
2023-01-21T18:47:50.479Z,2.51
2023-01-21T18:49:53.185Z,2.55
2023-01-21T18:51:55.869Z,2.54
2023-01-21T18:53:58.673Z,2.52
2023-01-21T18:56:01.551Z,2.47
2023-01-21T18:58:12.562Z,2.55
2023-01-21T19:00:26.977Z,2.59
2023-01-21T19:02:29.739Z,2.59
2023-01-21T19:04:32.456Z,2.56
2023-01-21T19:06:35.872Z,2.50
2023-01-21T19:08:38.535Z,2.53
2023-01-21T19:10:41.224Z,2.45
2023-01-21T19:12:44.069Z,2.46
2023-01-21T19:14:48.775Z,2.46
2023-01-21T19:16:51.503Z,2.49
2023-01-21T19:18:54.339Z,2.49
2023-01-21T19:20:57.047Z,2.42
2023-01-21T19:22:59.732Z,2.38
2023-01-21T19:25:02.400Z,2.28
2023-01-21T19:27:06.309Z,2.29
2023-01-21T19:29:14.811Z,2.36
2023-01-21T19:31:18.923Z,2.39
2023-01-21T19:33:22.136Z,2.33
2023-01-21T19:35:29.513Z,2.40
2023-01-21T19:37:32.208Z,2.38
2023-01-21T19:39:34.892Z,2.36
2023-01-21T19:41:37.694Z,2.37
2023-01-21T19:43:41.133Z,2.41
2023-01-21T19:45:44.388Z,2.39
2023-01-21T19:47:50.126Z,2.38
2023-01-21T19:49:52.875Z,2.41
2023-01-21T19:51:56.299Z,2.46
2023-01-21T19:53:58.944Z,2.52
2023-01-21T19:56:02.047Z,2.53
2023-01-21T19:58:06.258Z,2.49
2023-01-21T20:00:20.080Z,2.49
2023-01-21T20:02:23.006Z,2.46
2023-01-21T20:04:27.157Z,2.42
2023-01-21T20:06:35.439Z,2.37
2023-01-21T20:08:38.229Z,2.37
2023-01-21T20:10:41.264Z,2.39
2023-01-21T20:12:44.863Z,2.40
2023-01-21T20:14:47.480Z,2.42
2023-01-21T20:16:52.115Z,2.41
2023-01-21T20:18:56.141Z,2.49
2023-01-21T20:21:00.342Z,2.47
2023-01-21T20:23:03.067Z,2.41
2023-01-21T20:25:08.228Z,2.42
2023-01-21T20:27:14.603Z,2.50
2023-01-21T20:29:17.462Z,2.54
2023-01-21T20:31:20.394Z,2.54
2023-01-21T20:33:26.312Z,2.52
2023-01-21T20:35:30.038Z,2.53
2023-01-21T20:37:35.406Z,2.52
2023-01-21T20:39:38.024Z,2.56
2023-01-21T20:41:43.823Z,2.59
2023-01-21T20:43:46.664Z,2.60
2023-01-21T20:45:52.010Z,2.63
2023-01-21T20:47:57.833Z,2.65
2023-01-21T20:50:00.488Z,2.60
2023-01-21T20:52:03.229Z,2.65
2023-01-21T20:54:07.496Z,2.70
2023-01-21T20:56:18.692Z,2.67
2023-01-21T20:58:22.605Z,2.69
2023-01-21T21:00:27.788Z,2.66
2023-01-21T21:02:30.498Z,2.66
2023-01-21T21:04:33.675Z,2.60
2023-01-21T21:06:36.669Z,2.58
2023-01-21T21:08:39.651Z,2.54
2023-01-21T21:10:44.366Z,2.56
2023-01-21T21:12:47.042Z,2.55
2023-01-21T21:14:49.690Z,2.66
2023-01-21T21:16:54.341Z,2.72
2023-01-21T21:18:57.220Z,2.71
2023-01-21T21:20:59.997Z,2.74
2023-01-21T21:23:02.883Z,2.67
2023-01-21T21:25:06.292Z,2.72
2023-01-21T21:27:12.031Z,2.66
2023-01-21T21:29:14.757Z,2.68
2023-01-21T21:31:18.545Z,2.72
2023-01-21T21:33:22.828Z,2.75
2023-01-21T21:35:27.265Z,2.81
2023-01-21T21:37:29.966Z,2.82
2023-01-21T21:39:32.689Z,2.72
2023-01-21T21:41:52.814Z,2.64
2023-01-21T21:43:57.187Z,2.73
2023-01-21T21:46:22.595Z,2.78
2023-01-21T21:48:42.361Z,2.81
2023-01-21T21:50:45.313Z,2.79
2023-01-21T21:52:48.120Z,2.84
2023-01-21T21:54:50.948Z,2.88
2023-01-21T21:56:53.704Z,2.80
2023-01-21T21:58:57.732Z,2.81
2023-01-21T22:01:07.982Z,2.87
2023-01-21T22:03:12.244Z,2.97
2023-01-21T22:05:15.200Z,3.01
2023-01-21T22:07:17.920Z,2.96
2023-01-21T22:09:20.731Z,2.92
2023-01-21T22:11:24.354Z,2.88
2023-01-21T22:13:27.873Z,2.92
2023-01-21T22:15:31.976Z,2.92
2023-01-21T22:17:34.734Z,2.87
2023-01-21T22:19:37.878Z,2.77
2023-01-21T22:21:40.670Z,2.76
2023-01-21T22:23:43.692Z,2.72
2023-01-21T22:25:46.527Z,2.74
2023-01-21T22:27:49.265Z,2.72
2023-01-21T22:29:52.059Z,2.73
2023-01-21T22:31:56.249Z,2.72
2023-01-21T22:34:00.580Z,2.73
2023-01-21T22:36:03.893Z,2.76
2023-01-21T22:38:07.179Z,2.71
2023-01-21T22:40:11.155Z,2.64
2023-01-21T22:42:14.048Z,2.66
2023-01-21T22:44:16.847Z,2.58
2023-01-21T22:46:21.787Z,2.56
2023-01-21T22:48:26.369Z,2.51
2023-01-21T22:50:29.818Z,2.51
2023-01-21T22:52:32.560Z,2.49
2023-01-21T22:54:35.384Z,2.45
2023-01-21T22:56:51.523Z,2.37
2023-01-21T22:58:55.144Z,2.30
2023-01-21T23:00:59.162Z,2.32
2023-01-21T23:03:01.837Z,2.34
2023-01-21T23:05:06.415Z,2.43
2023-01-21T23:07:09.144Z,2.47
2023-01-21T23:09:14.747Z,2.38
2023-01-21T23:11:19.047Z,2.38
2023-01-21T23:13:21.856Z,2.42
2023-01-21T23:15:25.214Z,2.49
2023-01-21T23:17:27.853Z,2.53
2023-01-21T23:19:30.566Z,2.46
2023-01-21T23:21:35.953Z,2.44
2023-01-21T23:23:38.718Z,2.47
2023-01-21T23:25:41.985Z,2.53
2023-01-21T23:27:46.100Z,2.59
2023-01-21T23:29:48.792Z,2.59
2023-01-21T23:31:52.158Z,2.58
2023-01-21T23:33:57.149Z,2.56
2023-01-21T23:36:00.825Z,2.54
2023-01-21T23:38:04.854Z,2.52
2023-01-21T23:40:10.140Z,2.57
2023-01-21T23:42:12.797Z,2.59
2023-01-21T23:44:15.508Z,2.54
2023-01-21T23:46:20.018Z,2.55
2023-01-21T23:48:23.619Z,2.58
2023-01-21T23:50:26.221Z,2.61
2023-01-21T23:52:28.862Z,2.65
2023-01-21T23:54:32.974Z,2.63
2023-01-21T23:56:35.684Z,2.65
2023-01-21T23:58:38.688Z,2.68
